Main page
METAR-TAF:

METAR-TAF

Airports :

São Gabriel da Cachoeira Airport

São Gabriel da Cachoeira, Amazonas, Brazil

latitude: 00-08S, longitude: 067-05W, elevation: 90 m

Current weather observation

The report was made 7 hours and 6 minutes ago, at 20:00 UTC
Wind 4 kt from the North/Northwest
Temperature 30°C
Humidity 66%
Pressure 1010 hPa
Visibility 10 km or more
Scattered clouds at a height of 2500 ft
Few clouds at a height of 3000 ft, Towering cumulus.

METAR: SBUA 232000Z 34004KT 9999 SCT025 FEW030TCU 30/23 Q1010

Time: 23:06 (03:06 UTC)


TAF: missing

Weather observations and forecasts of more than 4000 airports (METAR and TAF reports).

The available stations are represented by yellow and red dots on the map.

Hover mouse over dot to see the name of the station.

Then click to see weather observations and forecasts.

To change the map : click on the green buttons with a black cross to zoom in, on the green button with a dash to zoom out, or on the green arrows for adjacent maps.


METAR-TAF: